createdAt,value
2022-12-27T00:00:23.415Z,0.00
2022-12-27T00:01:23.355Z,0.00
2022-12-27T00:02:23.412Z,0.00
2022-12-27T00:03:23.339Z,0.00
2022-12-27T00:04:23.330Z,0.00
2022-12-27T00:05:23.359Z,0.00
2022-12-27T00:06:23.303Z,0.00
2022-12-27T00:07:23.313Z,0.00
2022-12-27T00:08:23.285Z,0.00
2022-12-27T00:09:23.268Z,0.00
2022-12-27T00:10:23.278Z,0.00
2022-12-27T00:11:23.253Z,0.00
2022-12-27T00:12:23.262Z,0.00
2022-12-27T00:13:23.224Z,0.00
2022-12-27T00:14:23.218Z,0.00
2022-12-27T00:15:23.220Z,0.00
2022-12-27T00:16:23.323Z,0.00
2022-12-27T00:17:23.203Z,0.00
2022-12-27T00:18:23.177Z,0.00
2022-12-27T00:19:23.164Z,0.00
2022-12-27T00:20:23.161Z,0.00
2022-12-27T00:21:23.157Z,0.00
2022-12-27T00:22:23.156Z,0.00
2022-12-27T00:23:23.118Z,0.00
2022-12-27T00:24:23.112Z,0.00
2022-12-27T00:25:23.100Z,0.00
2022-12-27T00:26:23.088Z,0.00
2022-12-27T00:27:23.093Z,0.00
2022-12-27T00:28:23.072Z,0.00
2022-12-27T00:29:23.071Z,0.00
2022-12-27T00:30:23.046Z,0.00
2022-12-27T00:31:23.073Z,0.00
2022-12-27T00:32:23.050Z,0.00
2022-12-27T00:33:23.032Z,0.00
2022-12-27T00:34:23.001Z,0.00
2022-12-27T00:35:22.993Z,0.00
2022-12-27T00:36:22.987Z,0.00
2022-12-27T00:37:22.997Z,0.00
2022-12-27T00:38:23.010Z,0.00
2022-12-27T00:39:22.972Z,0.00
2022-12-27T00:40:22.942Z,0.00
2022-12-27T00:41:22.926Z,0.00
2022-12-27T00:42:22.923Z,0.00
2022-12-27T00:43:22.913Z,0.00
2022-12-27T00:44:22.924Z,0.00
2022-12-27T00:45:22.949Z,0.00
2022-12-27T00:46:22.890Z,0.00
2022-12-27T00:47:22.867Z,0.00
2022-12-27T00:48:22.856Z,0.00
2022-12-27T00:49:22.857Z,0.00
2022-12-27T00:50:22.838Z,0.00
2022-12-27T00:51:22.838Z,0.00
2022-12-27T00:52:22.811Z,0.00
2022-12-27T00:53:22.817Z,0.00
2022-12-27T00:54:22.824Z,0.00
2022-12-27T00:55:22.775Z,0.00
2022-12-27T00:56:22.773Z,0.00
2022-12-27T00:57:22.752Z,0.00
2022-12-27T00:58:22.747Z,0.00
2022-12-27T00:59:22.752Z,0.00
2022-12-27T01:00:22.726Z,0.00
2022-12-27T01:01:22.930Z,0.00
2022-12-27T01:02:22.737Z,0.00
2022-12-27T01:03:22.748Z,0.00
2022-12-27T01:04:22.695Z,0.00
2022-12-27T01:05:22.671Z,0.00
2022-12-27T01:06:22.666Z,0.00
2022-12-27T01:07:22.650Z,0.00
2022-12-27T01:08:22.644Z,0.00
2022-12-27T01:09:22.677Z,0.00
2022-12-27T01:10:22.618Z,0.00
2022-12-27T01:11:22.609Z,0.00
2022-12-27T01:12:22.595Z,0.00
2022-12-27T01:13:22.586Z,0.00
2022-12-27T01:14:22.591Z,0.00
2022-12-27T01:15:22.564Z,0.00
2022-12-27T01:16:22.593Z,0.00
2022-12-27T01:17:22.564Z,0.00
2022-12-27T01:18:22.534Z,0.00
2022-12-27T01:19:22.527Z,0.00
2022-12-27T01:20:22.508Z,0.00
2022-12-27T01:21:22.528Z,0.00
2022-12-27T01:22:22.518Z,0.00
2022-12-27T01:23:22.483Z,0.00
2022-12-27T01:24:22.473Z,0.00
2022-12-27T01:25:22.476Z,0.00
2022-12-27T01:26:22.468Z,0.00
2022-12-27T01:27:22.433Z,0.00
2022-12-27T01:28:22.441Z,0.00
2022-12-27T01:29:22.413Z,0.00
2022-12-27T01:30:22.406Z,0.00
2022-12-27T01:31:22.515Z,0.00
2022-12-27T01:32:22.399Z,0.00
2022-12-27T01:33:22.409Z,0.00
2022-12-27T01:34:22.358Z,0.00
2022-12-27T01:35:22.356Z,0.00
2022-12-27T01:36:22.372Z,0.00
2022-12-27T01:37:22.331Z,0.00
2022-12-27T01:38:22.310Z,0.00
2022-12-27T01:39:22.304Z,0.00
2022-12-27T01:40:22.292Z,0.00
2022-12-27T01:41:22.302Z,0.00
2022-12-27T01:42:22.293Z,0.00
2022-12-27T01:43:22.264Z,0.00
2022-12-27T01:44:22.248Z,0.00
2022-12-27T01:45:22.239Z,0.00
2022-12-27T01:46:22.225Z,0.00
2022-12-27T01:47:22.243Z,0.00
2022-12-27T01:48:22.212Z,0.00
2022-12-27T01:49:22.198Z,0.00
2022-12-27T01:50:22.190Z,0.00
2022-12-27T01:51:22.174Z,0.00
2022-12-27T01:52:22.184Z,0.00
2022-12-27T01:53:22.168Z,0.00
2022-12-27T01:54:22.137Z,0.00
2022-12-27T01:55:22.163Z,0.00
2022-12-27T01:56:22.118Z,0.00
2022-12-27T01:57:22.195Z,0.00
2022-12-27T01:58:22.094Z,0.00
2022-12-27T01:59:22.083Z,0.00
2022-12-27T02:00:22.084Z,0.00
2022-12-27T02:01:22.173Z,0.00
2022-12-27T02:02:22.231Z,0.00
2022-12-27T02:03:22.041Z,0.00
2022-12-27T02:04:22.030Z,0.00
2022-12-27T02:05:22.052Z,0.00
2022-12-27T02:06:22.006Z,0.00
2022-12-27T02:07:21.999Z,0.00
2022-12-27T02:08:21.988Z,0.00
2022-12-27T02:09:21.978Z,0.00
2022-12-27T02:10:21.997Z,0.00
2022-12-27T02:11:21.958Z,0.00
2022-12-27T02:12:21.947Z,0.00
2022-12-27T02:13:21.954Z,0.00
2022-12-27T02:14:26.204Z,0.00
2022-12-27T02:15:22.926Z,0.00
2022-12-27T02:16:21.935Z,0.00
2022-12-27T02:17:21.904Z,0.00
2022-12-27T02:18:21.900Z,0.00
2022-12-27T02:19:21.865Z,0.00
2022-12-27T02:20:21.875Z,0.00
2022-12-27T02:21:21.851Z,0.00
2022-12-27T02:22:21.833Z,0.00
2022-12-27T02:23:21.824Z,0.00
2022-12-27T02:24:21.808Z,0.00
2022-12-27T02:25:21.834Z,0.00
2022-12-27T02:26:21.790Z,0.00
2022-12-27T02:27:21.778Z,0.00
2022-12-27T02:28:21.770Z,0.00
2022-12-27T02:29:21.780Z,0.00
2022-12-27T02:30:21.741Z,0.00
2022-12-27T02:31:21.749Z,0.00
2022-12-27T02:32:21.720Z,0.00
2022-12-27T02:33:21.712Z,0.00
2022-12-27T02:34:21.720Z,0.00
2022-12-27T02:35:21.688Z,0.00
2022-12-27T02:36:21.674Z,0.00
2022-12-27T02:37:21.668Z,0.00
2022-12-27T02:38:21.649Z,0.00
2022-12-27T02:39:21.670Z,0.00
2022-12-27T02:40:21.631Z,0.00
2022-12-27T02:41:21.630Z,0.00
2022-12-27T02:42:21.609Z,0.00
2022-12-27T02:43:21.597Z,0.00
2022-12-27T02:44:21.624Z,0.00
2022-12-27T02:45:21.596Z,0.00
2022-12-27T02:46:22.168Z,0.00
2022-12-27T02:47:21.564Z,0.00
2022-12-27T02:48:21.563Z,0.00
2022-12-27T02:49:21.540Z,0.00
2022-12-27T02:50:21.541Z,0.00
2022-12-27T02:51:21.538Z,0.00
2022-12-27T02:52:21.499Z,0.00
2022-12-27T02:53:21.487Z,0.00
2022-12-27T02:54:21.477Z,0.00
2022-12-27T02:55:21.497Z,0.00
2022-12-27T02:56:21.455Z,0.00
2022-12-27T02:57:21.451Z,0.00
2022-12-27T02:58:21.441Z,0.00
2022-12-27T02:59:21.438Z,0.00
2022-12-27T03:00:21.434Z,0.00
2022-12-27T03:01:21.626Z,0.00
2022-12-27T03:02:21.635Z,0.00
2022-12-27T03:03:21.468Z,0.00
2022-12-27T03:04:21.366Z,0.00
2022-12-27T03:05:21.390Z,0.00
2022-12-27T03:06:21.369Z,0.00
2022-12-27T03:07:21.341Z,0.00
2022-12-27T03:08:21.322Z,0.00
2022-12-27T03:09:21.318Z,0.00
2022-12-27T03:10:21.299Z,0.00
2022-12-27T03:11:21.316Z,0.00
2022-12-27T03:12:21.289Z,0.00
2022-12-27T03:13:21.272Z,0.00
2022-12-27T03:14:21.256Z,0.00
2022-12-27T03:15:21.256Z,0.00
2022-12-27T03:16:21.282Z,0.00
2022-12-27T03:17:21.291Z,0.00
2022-12-27T03:18:21.212Z,0.00
2022-12-27T03:19:21.205Z,0.00
2022-12-27T03:20:21.191Z,0.00
2022-12-27T03:21:21.218Z,0.00
2022-12-27T03:22:21.169Z,0.00
2022-12-27T03:23:21.161Z,0.00
2022-12-27T03:24:21.153Z,0.00
2022-12-27T03:25:21.152Z,0.00
2022-12-27T03:26:21.148Z,0.00
2022-12-27T03:27:21.118Z,0.00
2022-12-27T03:28:21.115Z,0.00
2022-12-27T03:29:21.092Z,0.00
2022-12-27T03:30:21.085Z,0.00
2022-12-27T03:31:21.146Z,0.00
2022-12-27T03:32:21.066Z,0.00
2022-12-27T03:33:21.066Z,0.00
2022-12-27T03:34:21.057Z,0.00
2022-12-27T03:35:21.026Z,0.00
2022-12-27T03:36:21.014Z,0.00
2022-12-27T03:37:21.032Z,0.00
2022-12-27T03:38:20.991Z,0.00
2022-12-27T03:39:20.989Z,0.00
2022-12-27T03:40:20.972Z,0.00
2022-12-27T03:41:20.966Z,0.00
2022-12-27T03:42:20.968Z,0.00
2022-12-27T03:43:20.937Z,0.00
2022-12-27T03:44:20.954Z,0.00
2022-12-27T03:45:20.941Z,0.00
2022-12-27T03:46:20.948Z,0.00
2022-12-27T03:47:20.893Z,0.00
2022-12-27T03:48:20.882Z,0.00
2022-12-27T03:49:20.909Z,0.00
2022-12-27T03:50:20.885Z,0.00
2022-12-27T03:51:20.884Z,0.00
2022-12-27T03:52:20.847Z,0.00
2022-12-27T03:53:20.830Z,0.00
2022-12-27T03:54:20.818Z,0.00
2022-12-27T03:55:20.854Z,0.00
2022-12-27T03:56:20.806Z,0.00
2022-12-27T03:57:20.810Z,0.00
2022-12-27T03:58:20.779Z,0.00
2022-12-27T03:59:20.769Z,0.00
2022-12-27T04:00:20.772Z,0.00
2022-12-27T04:01:20.860Z,0.00
2022-12-27T04:02:20.945Z,0.00
2022-12-27T04:03:20.839Z,0.00
2022-12-27T04:04:20.710Z,0.00
2022-12-27T04:05:20.750Z,0.00
2022-12-27T04:06:20.692Z,0.00
2022-12-27T04:07:20.697Z,0.00
2022-12-27T04:08:20.668Z,0.00
2022-12-27T04:09:20.667Z,0.00
2022-12-27T04:10:20.655Z,0.00
2022-12-27T04:11:20.667Z,0.00
2022-12-27T04:12:20.634Z,0.00
2022-12-27T04:13:20.623Z,0.00
2022-12-27T04:14:20.610Z,0.00
2022-12-27T04:15:20.600Z,0.00
2022-12-27T04:16:20.670Z,0.00
2022-12-27T04:17:20.578Z,0.00
2022-12-27T04:18:20.571Z,0.00
2022-12-27T04:19:20.559Z,0.00
2022-12-27T04:20:20.581Z,0.00
2022-12-27T04:21:20.566Z,0.00
2022-12-27T04:22:20.535Z,0.00
2022-12-27T04:23:20.523Z,0.00
2022-12-27T04:24:20.509Z,0.00
2022-12-27T04:25:20.520Z,0.00
2022-12-27T04:26:20.484Z,0.00
2022-12-27T04:27:20.477Z,0.00
2022-12-27T04:28:20.465Z,0.00
2022-12-27T04:29:20.466Z,0.00
2022-12-27T04:30:20.466Z,0.00
2022-12-27T04:31:20.489Z,0.00
2022-12-27T04:32:20.448Z,0.00
2022-12-27T04:33:20.414Z,0.00
2022-12-27T04:34:20.398Z,0.00
2022-12-27T04:35:20.390Z,0.00
2022-12-27T04:36:20.398Z,0.00
2022-12-27T04:37:20.389Z,0.00
2022-12-27T04:38:20.352Z,0.00
2022-12-27T04:39:20.355Z,0.00
2022-12-27T04:40:20.335Z,0.00
2022-12-27T04:41:20.351Z,0.00
2022-12-27T04:42:20.312Z,0.00
2022-12-27T04:43:20.309Z,0.00
2022-12-27T04:44:20.300Z,0.00
2022-12-27T04:45:20.286Z,0.00
2022-12-27T04:46:20.325Z,0.00
2022-12-27T04:47:20.264Z,0.00
2022-12-27T04:48:20.249Z,0.00
2022-12-27T04:49:20.241Z,0.00
2022-12-27T04:50:20.225Z,0.00
2022-12-27T04:51:20.268Z,0.00
2022-12-27T04:52:20.204Z,0.00
2022-12-27T04:53:20.251Z,0.00
2022-12-27T04:54:20.191Z,0.00
2022-12-27T04:55:20.209Z,0.00
2022-12-27T04:56:20.180Z,0.00
2022-12-27T04:57:20.155Z,0.00
2022-12-27T04:58:20.146Z,0.00
2022-12-27T04:59:20.137Z,0.00
2022-12-27T05:00:20.149Z,0.00
2022-12-27T05:01:20.351Z,0.00
2022-12-27T05:02:20.274Z,0.00
2022-12-27T05:03:20.153Z,0.00
2022-12-27T05:04:20.120Z,0.00
2022-12-27T05:05:20.105Z,0.00
2022-12-27T05:06:20.061Z,0.00
2022-12-27T05:07:20.057Z,0.00
2022-12-27T05:08:20.061Z,0.00
2022-12-27T05:09:23.312Z,0.00
2022-12-27T05:10:20.035Z,0.00
2022-12-27T05:11:20.013Z,0.00
2022-12-27T05:12:20.002Z,0.00
2022-12-27T05:13:20.040Z,0.00
2022-12-27T05:14:19.984Z,0.00
2022-12-27T05:15:19.970Z,0.00
2022-12-27T05:16:20.063Z,0.00
2022-12-27T05:17:19.965Z,0.00
2022-12-27T05:18:19.932Z,0.00
2022-12-27T05:19:19.943Z,0.00
2022-12-27T05:20:19.914Z,0.00
2022-12-27T05:21:19.926Z,0.00
2022-12-27T05:22:19.893Z,0.00
2022-12-27T05:23:19.880Z,0.00
2022-12-27T05:24:19.894Z,0.00
2022-12-27T05:25:19.997Z,0.00
2022-12-27T05:26:19.852Z,0.00
2022-12-27T05:27:19.840Z,0.00
2022-12-27T05:28:19.825Z,0.00
2022-12-27T05:29:19.834Z,0.00
2022-12-27T05:30:19.848Z,0.00
2022-12-27T05:31:19.804Z,0.00
2022-12-27T05:32:19.785Z,0.00
2022-12-27T05:33:19.778Z,0.00
2022-12-27T05:34:19.784Z,0.00
2022-12-27T05:35:19.771Z,0.00
2022-12-27T05:36:19.762Z,0.00
2022-12-27T05:37:19.730Z,0.00
2022-12-27T05:38:19.719Z,0.00
2022-12-27T05:39:19.740Z,0.00
2022-12-27T05:40:19.702Z,0.00
2022-12-27T05:41:19.737Z,0.00
2022-12-27T05:42:19.677Z,0.00
2022-12-27T05:43:19.667Z,0.00
2022-12-27T05:44:19.661Z,0.00
2022-12-27T05:45:19.676Z,0.00
2022-12-27T05:46:19.675Z,0.00
2022-12-27T05:47:19.624Z,0.00
2022-12-27T05:48:19.616Z,0.00
2022-12-27T05:49:19.605Z,0.00
2022-12-27T05:50:19.621Z,0.00
2022-12-27T05:51:19.600Z,0.00
2022-12-27T05:52:19.577Z,0.00
2022-12-27T05:53:19.559Z,0.00
2022-12-27T05:54:19.554Z,0.00
2022-12-27T05:55:19.566Z,0.00
2022-12-27T05:56:19.536Z,0.00
2022-12-27T05:57:19.538Z,0.00
2022-12-27T05:58:19.532Z,0.00
2022-12-27T05:59:19.491Z,0.00
2022-12-27T06:00:19.483Z,0.00
2022-12-27T06:01:19.562Z,0.00
2022-12-27T06:02:19.675Z,0.00
2022-12-27T06:03:19.601Z,0.00
2022-12-27T06:04:19.446Z,0.00
2022-12-27T06:05:19.430Z,0.00
2022-12-27T06:06:19.419Z,0.00
2022-12-27T06:07:19.412Z,0.00
2022-12-27T06:08:19.401Z,0.00
2022-12-27T06:09:19.407Z,0.00
2022-12-27T06:10:19.401Z,0.00
2022-12-27T06:11:19.382Z,0.00
2022-12-27T06:12:19.364Z,0.00
2022-12-27T06:13:19.460Z,0.00
2022-12-27T06:14:19.356Z,0.00
2022-12-27T06:15:19.328Z,0.00
2022-12-27T06:16:19.339Z,0.00
2022-12-27T06:17:19.304Z,0.00
2022-12-27T06:18:19.308Z,0.00
2022-12-27T06:19:19.325Z,0.00
2022-12-27T06:20:19.307Z,0.00
2022-12-27T06:21:19.251Z,0.00
2022-12-27T06:22:19.245Z,0.00
2022-12-27T06:23:19.237Z,0.00
2022-12-27T06:24:19.233Z,0.00
2022-12-27T06:25:19.236Z,0.00
2022-12-27T06:26:19.208Z,0.00
2022-12-27T06:27:19.191Z,0.00
2022-12-27T06:28:19.183Z,0.00
2022-12-27T06:29:19.301Z,0.00
2022-12-27T06:30:19.184Z,0.00
2022-12-27T06:31:19.229Z,0.00
2022-12-27T06:32:19.138Z,0.00
2022-12-27T06:33:19.133Z,0.00
2022-12-27T06:34:19.122Z,0.00
2022-12-27T06:35:19.133Z,0.00
2022-12-27T06:36:19.099Z,0.00
2022-12-27T06:37:19.084Z,0.00
2022-12-27T06:38:19.077Z,0.00
2022-12-27T06:39:19.068Z,0.00
2022-12-27T06:40:19.611Z,0.00
2022-12-27T06:41:19.067Z,0.00
2022-12-27T06:42:19.028Z,0.00
2022-12-27T06:43:19.037Z,0.00
2022-12-27T06:44:19.013Z,0.00
2022-12-27T06:45:19.030Z,0.00
2022-12-27T06:46:19.063Z,0.00
2022-12-27T06:47:18.971Z,0.00
2022-12-27T06:48:18.973Z,0.00
2022-12-27T06:49:18.962Z,0.00
2022-12-27T06:50:18.950Z,0.00
2022-12-27T06:51:18.971Z,4.00
2022-12-27T06:52:18.926Z,4.00
2022-12-27T06:53:18.908Z,4.00
2022-12-27T06:54:18.903Z,0.00
2022-12-27T06:55:18.890Z,0.00
2022-12-27T06:56:18.910Z,0.00
2022-12-27T06:57:18.874Z,4.00
2022-12-27T06:58:18.926Z,0.00
2022-12-27T06:59:18.849Z,4.00
2022-12-27T07:00:18.840Z,4.00
2022-12-27T07:01:19.104Z,4.00
2022-12-27T07:02:19.066Z,4.00
2022-12-27T07:03:18.879Z,4.00
2022-12-27T07:04:18.804Z,8.00
2022-12-27T07:05:18.785Z,4.00
2022-12-27T07:06:18.775Z,8.00
2022-12-27T07:07:18.762Z,8.00
2022-12-27T07:08:18.772Z,8.00
2022-12-27T07:09:18.768Z,8.00
2022-12-27T07:10:18.737Z,12.00
2022-12-27T07:11:18.718Z,8.00
2022-12-27T07:12:18.713Z,12.00
2022-12-27T07:13:18.704Z,12.00
2022-12-27T07:14:18.692Z,12.00
2022-12-27T07:15:18.697Z,12.00
2022-12-27T07:16:18.738Z,16.00
2022-12-27T07:17:18.677Z,12.00
2022-12-27T07:18:18.647Z,12.00
2022-12-27T07:19:18.643Z,16.00
2022-12-27T07:20:18.651Z,12.00
2022-12-27T07:21:18.643Z,16.00
2022-12-27T07:22:18.607Z,12.00
2022-12-27T07:23:19.535Z,8.00
2022-12-27T07:24:18.589Z,20.00
2022-12-27T07:25:18.570Z,20.00
2022-12-27T07:26:18.590Z,12.00
2022-12-27T07:27:18.573Z,16.00
2022-12-27T07:28:18.543Z,20.00
2022-12-27T07:29:18.536Z,16.00
2022-12-27T07:30:18.579Z,16.00
2022-12-27T07:31:18.604Z,20.00
2022-12-27T07:32:18.511Z,24.00
2022-12-27T07:33:18.513Z,20.00
2022-12-27T07:34:18.515Z,20.00
2022-12-27T07:35:18.501Z,28.00
2022-12-27T07:36:18.458Z,44.00
2022-12-27T07:37:18.457Z,48.00
2022-12-27T07:38:18.443Z,52.00
2022-12-27T07:39:18.430Z,52.00
2022-12-27T07:40:18.420Z,60.00
2022-12-27T07:41:18.426Z,60.00
2022-12-27T07:42:18.398Z,60.00
2022-12-27T07:43:18.385Z,72.00
2022-12-27T07:44:18.386Z,96.00
2022-12-27T07:45:18.360Z,68.00
2022-12-27T07:46:18.427Z,72.00
2022-12-27T07:47:18.361Z,88.00
2022-12-27T07:48:18.334Z,108.00
2022-12-27T07:49:18.337Z,116.00
2022-12-27T07:50:18.313Z,104.00
2022-12-27T07:51:18.302Z,112.00
2022-12-27T07:52:18.322Z,92.00
2022-12-27T07:53:18.276Z,88.00
2022-12-27T07:54:18.273Z,104.00
2022-12-27T07:55:18.254Z,100.00
2022-12-27T07:56:25.174Z,132.00
2022-12-27T07:57:19.265Z,104.00
2022-12-27T07:58:18.226Z,84.00
2022-12-27T07:59:18.211Z,76.00
2022-12-27T08:00:18.202Z,64.00
2022-12-27T08:01:18.305Z,64.00
2022-12-27T08:02:18.347Z,68.00
2022-12-27T08:03:18.212Z,80.00
2022-12-27T08:04:18.160Z,84.00
2022-12-27T08:05:21.455Z,72.00
2022-12-27T08:06:19.137Z,72.00
2022-12-27T08:07:18.150Z,80.00
2022-12-27T08:08:18.122Z,84.00
2022-12-27T08:09:18.107Z,164.00
2022-12-27T08:10:18.099Z,132.00
2022-12-27T08:11:18.084Z,112.00
2022-12-27T08:12:18.202Z,108.00
2022-12-27T08:13:18.064Z,108.00
2022-12-27T08:14:18.056Z,120.00
2022-12-27T08:15:18.044Z,128.00
2022-12-27T08:16:18.074Z,132.00
2022-12-27T08:17:18.040Z,136.00
2022-12-27T08:18:18.015Z,120.00
2022-12-27T08:19:18.015Z,100.00
2022-12-27T08:20:18.019Z,88.00
2022-12-27T08:21:18.075Z,72.00
2022-12-27T08:22:17.987Z,60.00
2022-12-27T08:23:17.960Z,84.00
2022-12-27T08:24:17.957Z,84.00
2022-12-27T08:25:17.959Z,124.00
2022-12-27T08:26:17.936Z,112.00
2022-12-27T08:27:17.941Z,116.00
2022-12-27T08:28:17.925Z,128.00
2022-12-27T08:29:17.892Z,164.00
2022-12-27T08:30:17.886Z,192.00
2022-12-27T08:31:17.986Z,184.00
2022-12-27T08:32:17.897Z,208.00
2022-12-27T08:33:17.857Z,272.00
2022-12-27T08:34:17.857Z,236.00
2022-12-27T08:35:50.854Z,160.00
2022-12-27T08:37:18.849Z,40.00
2022-12-27T08:38:17.812Z,52.00
2022-12-27T08:39:17.793Z,60.00
2022-12-27T08:40:17.797Z,72.00
2022-12-27T08:41:17.793Z,76.00
2022-12-27T08:42:17.762Z,72.00
2022-12-27T08:43:17.799Z,72.00
2022-12-27T08:44:17.738Z,56.00
2022-12-27T08:45:17.721Z,84.00
2022-12-27T08:46:17.807Z,72.00
2022-12-27T08:47:17.727Z,60.00
2022-12-27T08:48:17.739Z,64.00
2022-12-27T08:49:17.689Z,60.00
2022-12-27T08:50:17.673Z,32.00
2022-12-27T08:51:28.377Z,32.00
2022-12-27T08:52:18.669Z,56.00
2022-12-27T08:53:17.669Z,92.00
2022-12-27T08:54:17.629Z,140.00
2022-12-27T08:55:17.621Z,156.00
2022-12-27T08:56:17.614Z,164.00
2022-12-27T08:57:17.647Z,92.00
2022-12-27T08:58:17.610Z,64.00
2022-12-27T08:59:17.588Z,84.00
2022-12-27T09:00:17.567Z,84.00
2022-12-27T09:01:17.697Z,84.00
2022-12-27T09:02:17.663Z,100.00
2022-12-27T09:03:17.548Z,116.00
2022-12-27T09:04:17.529Z,152.00
2022-12-27T09:05:17.520Z,148.00
2022-12-27T09:06:17.511Z,80.00
2022-12-27T09:07:17.517Z,80.00
2022-12-27T09:08:17.491Z,116.00
2022-12-27T09:09:17.491Z,128.00
2022-12-27T09:10:17.465Z,180.00
2022-12-27T09:11:17.455Z,300.00
2022-12-27T09:12:17.469Z,360.00
2022-12-27T09:13:17.432Z,356.00
2022-12-27T09:14:17.426Z,404.00
2022-12-27T09:15:17.405Z,360.00
2022-12-27T09:16:17.481Z,412.00
2022-12-27T09:17:17.437Z,336.00
2022-12-27T09:18:17.381Z,340.00
2022-12-27T09:19:17.386Z,256.00
2022-12-27T09:20:17.360Z,148.00
2022-12-27T09:21:17.342Z,108.00
2022-12-27T09:22:17.338Z,140.00
2022-12-27T09:23:17.320Z,200.00
2022-12-27T09:24:17.336Z,216.00
2022-12-27T09:25:17.384Z,168.00
2022-12-27T09:26:17.303Z,124.00
2022-12-27T09:27:17.303Z,96.00
2022-12-27T09:28:17.276Z,124.00
2022-12-27T09:29:17.255Z,152.00
2022-12-27T09:30:17.251Z,192.00
2022-12-27T09:31:17.317Z,220.00
2022-12-27T09:32:17.258Z,416.00
2022-12-27T09:33:17.212Z,408.00
2022-12-27T09:34:17.207Z,516.00
2022-12-27T09:35:17.192Z,500.00
2022-12-27T09:36:17.196Z,632.00
2022-12-27T09:37:17.206Z,784.00
2022-12-27T09:38:17.167Z,640.00
2022-12-27T09:39:17.178Z,572.00
2022-12-27T09:40:17.151Z,352.00
2022-12-27T09:41:37.666Z,380.00
2022-12-27T09:43:24.087Z,300.00
2022-12-27T09:44:18.092Z,256.00
2022-12-27T09:45:17.088Z,204.00
2022-12-27T09:46:17.117Z,192.00
2022-12-27T09:47:17.062Z,208.00
2022-12-27T09:48:17.081Z,208.00
2022-12-27T09:49:17.046Z,188.00
2022-12-27T09:50:17.036Z,244.00
2022-12-27T09:51:17.026Z,232.00
2022-12-27T09:52:17.031Z,212.00
2022-12-27T09:53:17.000Z,228.00
2022-12-27T09:54:16.986Z,288.00
2022-12-27T09:55:16.979Z,268.00
2022-12-27T09:56:16.960Z,332.00
2022-12-27T09:57:20.734Z,332.00
2022-12-27T09:58:16.959Z,316.00
2022-12-27T09:59:16.931Z,240.00
2022-12-27T10:00:16.914Z,208.00
2022-12-27T10:01:17.033Z,208.00
2022-12-27T10:02:17.017Z,240.00
2022-12-27T10:03:16.907Z,220.00
2022-12-27T10:04:16.929Z,180.00
2022-12-27T10:05:21.558Z,212.00
2022-12-27T10:06:17.860Z,212.00
2022-12-27T10:07:16.845Z,168.00
2022-12-27T10:08:16.861Z,184.00
2022-12-27T10:09:16.827Z,196.00
2022-12-27T10:10:16.805Z,148.00
2022-12-27T10:11:16.807Z,304.00
2022-12-27T10:12:16.787Z,268.00
2022-12-27T10:13:16.815Z,272.00
2022-12-27T10:14:16.761Z,304.00
2022-12-27T10:15:16.751Z,284.00
2022-12-27T10:16:16.795Z,328.00
2022-12-27T10:17:16.732Z,288.00
2022-12-27T10:18:16.792Z,352.00
2022-12-27T10:19:16.728Z,352.00
2022-12-27T10:20:16.694Z,468.00
2022-12-27T10:21:16.700Z,508.00
2022-12-27T10:22:16.683Z,604.00
2022-12-27T10:23:16.686Z,624.00
2022-12-27T10:24:16.658Z,504.00
2022-12-27T10:25:16.649Z,444.00
2022-12-27T10:26:16.644Z,496.00
2022-12-27T10:27:16.629Z,476.00
2022-12-27T10:28:16.629Z,496.00
2022-12-27T10:29:16.618Z,400.00
2022-12-27T10:30:16.592Z,300.00
2022-12-27T10:31:16.630Z,408.00
2022-12-27T10:32:16.566Z,372.00
2022-12-27T10:33:16.559Z,564.00
2022-12-27T10:34:16.545Z,452.00
2022-12-27T10:35:16.536Z,496.00
2022-12-27T10:36:16.560Z,276.00
2022-12-27T10:37:16.533Z,380.00
2022-12-27T10:38:16.498Z,388.00
2022-12-27T10:39:16.505Z,264.00
2022-12-27T10:40:16.475Z,344.00
2022-12-27T10:41:16.473Z,484.00
2022-12-27T10:42:16.478Z,720.00
2022-12-27T10:43:16.447Z,632.00
2022-12-27T10:44:16.451Z,348.00
2022-12-27T10:45:16.447Z,308.00
2022-12-27T10:46:16.451Z,512.00
2022-12-27T10:47:16.412Z,256.00
2022-12-27T10:48:16.425Z,268.00
2022-12-27T10:49:21.054Z,256.00
2022-12-27T10:50:17.413Z,184.00
2022-12-27T10:51:16.405Z,164.00
2022-12-27T10:52:16.373Z,128.00
2022-12-27T10:53:16.339Z,164.00
2022-12-27T10:54:16.326Z,180.00
2022-12-27T10:55:16.327Z,172.00
2022-12-27T10:56:16.303Z,264.00
2022-12-27T10:57:16.319Z,320.00
2022-12-27T10:58:16.285Z,304.00
2022-12-27T10:59:16.300Z,308.00
2022-12-27T11:00:16.268Z,316.00
2022-12-27T11:01:16.405Z,364.00
2022-12-27T11:02:16.401Z,292.00
2022-12-27T11:03:16.248Z,556.00
2022-12-27T11:04:20.705Z,600.00
2022-12-27T11:05:17.207Z,372.00
2022-12-27T11:06:16.195Z,376.00
2022-12-27T11:07:16.184Z,332.00
2022-12-27T11:08:16.173Z,244.00
2022-12-27T11:09:16.188Z,192.00
2022-12-27T11:10:16.149Z,184.00
2022-12-27T11:11:16.146Z,212.00
2022-12-27T11:12:16.154Z,216.00
2022-12-27T11:13:16.129Z,260.00
2022-12-27T11:14:16.144Z,168.00
2022-12-27T11:15:16.102Z,208.00
2022-12-27T11:16:16.163Z,256.00
2022-12-27T11:17:16.120Z,304.00
2022-12-27T11:18:16.076Z,240.00
2022-12-27T11:19:16.051Z,468.00
2022-12-27T11:20:16.087Z,408.00
2022-12-27T11:21:24.089Z,220.00
2022-12-27T11:22:17.039Z,116.00
2022-12-27T11:23:16.013Z,108.00
2022-12-27T11:24:16.008Z,200.00
2022-12-27T11:25:15.994Z,260.00
2022-12-27T11:26:15.984Z,204.00
2022-12-27T11:27:15.993Z,248.00
2022-12-27T11:28:15.975Z,304.00
2022-12-27T11:29:15.948Z,316.00
2022-12-27T11:30:15.975Z,292.00
2022-12-27T11:31:15.975Z,336.00
2022-12-27T11:32:15.927Z,324.00
2022-12-27T11:33:19.675Z,292.00
2022-12-27T11:34:16.896Z,344.00
2022-12-27T11:35:15.881Z,608.00
2022-12-27T11:36:15.887Z,624.00
2022-12-27T11:37:15.870Z,464.00
2022-12-27T11:38:15.844Z,536.00
2022-12-27T11:39:15.859Z,440.00
2022-12-27T11:40:15.936Z,424.00
2022-12-27T11:41:15.819Z,480.00
2022-12-27T11:42:15.802Z,588.00
2022-12-27T11:43:15.792Z,600.00
2022-12-27T11:44:15.807Z,512.00
2022-12-27T11:45:15.803Z,464.00
2022-12-27T11:46:15.765Z,412.00
2022-12-27T11:47:15.815Z,472.00
2022-12-27T11:48:15.747Z,560.00
2022-12-27T11:49:15.755Z,540.00
2022-12-27T11:50:15.867Z,472.00
2022-12-27T11:51:15.861Z,400.00
2022-12-27T11:52:15.692Z,368.00
2022-12-27T11:53:15.692Z,324.00
2022-12-27T11:54:15.696Z,232.00
2022-12-27T11:55:15.664Z,176.00
2022-12-27T11:56:15.654Z,140.00
2022-12-27T11:57:15.647Z,180.00
2022-12-27T11:58:15.641Z,184.00
2022-12-27T11:59:15.652Z,168.00
2022-12-27T12:00:15.610Z,180.00
2022-12-27T12:01:15.667Z,116.00
2022-12-27T12:02:15.683Z,200.00
2022-12-27T12:03:15.631Z,208.00
2022-12-27T12:04:15.588Z,208.00
2022-12-27T12:05:15.585Z,176.00
2022-12-27T12:06:15.552Z,196.00
2022-12-27T12:07:15.554Z,292.00
2022-12-27T12:08:15.543Z,476.00
2022-12-27T12:09:15.516Z,516.00
2022-12-27T12:10:15.501Z,460.00
2022-12-27T12:11:15.527Z,372.00
2022-12-27T12:12:15.480Z,312.00
2022-12-27T12:13:15.467Z,292.00
2022-12-27T12:14:15.456Z,164.00
2022-12-27T12:15:15.453Z,152.00
2022-12-27T12:16:15.487Z,172.00
2022-12-27T12:17:15.432Z,176.00
2022-12-27T12:18:15.418Z,180.00
2022-12-27T12:19:15.411Z,184.00
2022-12-27T12:20:15.399Z,192.00
2022-12-27T12:21:15.438Z,228.00
2022-12-27T12:22:15.375Z,244.00
2022-12-27T12:23:15.383Z,320.00
2022-12-27T12:24:15.348Z,364.00
2022-12-27T12:25:15.339Z,256.00
2022-12-27T12:26:15.329Z,236.00
2022-12-27T12:27:15.320Z,168.00
2022-12-27T12:28:47.353Z,232.00
2022-12-27T12:29:16.299Z,320.00
2022-12-27T12:30:15.283Z,200.00
2022-12-27T12:31:15.304Z,196.00
2022-12-27T12:32:15.284Z,256.00
2022-12-27T12:33:15.253Z,228.00
2022-12-27T12:34:15.262Z,256.00
2022-12-27T12:35:15.237Z,288.00
2022-12-27T12:36:15.218Z,276.00
2022-12-27T12:37:15.258Z,212.00
2022-12-27T12:38:15.200Z,356.00
2022-12-27T12:39:15.201Z,368.00
2022-12-27T12:40:15.175Z,256.00
2022-12-27T12:41:15.172Z,192.00
2022-12-27T12:42:15.171Z,204.00
2022-12-27T12:43:15.155Z,224.00
2022-12-27T12:44:15.136Z,188.00
2022-12-27T12:45:15.197Z,160.00
2022-12-27T12:46:15.177Z,136.00
2022-12-27T12:47:15.101Z,100.00
2022-12-27T12:48:15.091Z,188.00
2022-12-27T12:49:15.084Z,180.00
2022-12-27T12:50:15.193Z,192.00
2022-12-27T12:51:15.059Z,224.00
2022-12-27T12:52:15.070Z,188.00
2022-12-27T12:53:15.061Z,148.00
2022-12-27T12:54:15.029Z,164.00
2022-12-27T12:55:15.041Z,200.00
2022-12-27T12:56:15.003Z,180.00
2022-12-27T12:57:15.027Z,224.00
2022-12-27T12:58:14.982Z,196.00
2022-12-27T12:59:14.976Z,136.00